Accueil
METAR-TAF:

METAR-TAF

Aéroports :

Lugano, Suisse

Aéroport de Lugano

latitude: 46-00N, longitude: 008-58E, altitude: 273 m

Observation

Le bulletin a été fait il y a 17 minutes, à 04:50 UTC
Vent 3 kt de direction variable
Température -1°C
Humidité 100%
Pression 1017 hPa
Visibilité: 1700 m
brume

METAR: LSZA 180450Z AUTO VRB03KT 1700 BR NCD M01/M01 Q1017

Heure: 06:07 (05:07 UTC)

Prévision

Le bulletin a été fait il y a 14 heures et 42 minutes, à 14:25 UTC
Prévision valable du 17 à 15 UTC au 17 à 24 UTC
Vent 2 kt de direction variable
Visibilité: 7000 m
Nuages fragmentés à une hauteur de 6000 ft

TAF: LSZA 171425Z 1715/1724 VRB02KT 7000 BKN060

Observations et prévisions météorologiques de plus de 4000 aéroports (messages METAR et TAF).

Les stations disponibles sont représentées par des disques jaunes et rouges sur la carte.

Passer la souris dessus pour voir le nom de la station.

Cliquer dessus pour voir les observations et prévisions météorologiques.

Pour changer de carte: cliquez sur les boutons verts avec une croix noire pour zoomer, sur le bouton vert avec un tiret pour effectuer un zoom arrière, ou sur les flèches vertes pour les cartes adjacentes.


METAR-TAF: